Dunlevy, PA (15432)

5:45 AM EST on December 25, 2014 (GMT -0500)
Belle Vernon | Change Station
CLOSE
Current Station
Personal Weather Station
Location: Belle Vernon, PA
Elevation: 996 ft
Nearby Weather Stations

Elev 996 ft 40.12 °N, 79.85 °W | Updated 1 second ago

Overcast
Overcast
40.8 °F
Feels Like 37 °F
N
5.8
Wind Variable Wind from SW
Gusts 8.5 mph

Today
High -- | Low -- °F
--% Chance of Precip.
Yesterday
High -- | Low -- °F
Precip. -- in
7:39 AM 4:59 PM
Waxing Crescent, 15% visible
Pressure 29.75 in
Visibility 10.0 miles
Clouds Mostly Cloudy 2400 ft
Mostly Cloudy 2900 ft
Overcast 7000 ft
Windchill 37 °F
Dew Point 36 °F
Humidity 85%
Rainfall 0.02 in
Snow Depth Not available.
UV 0 out of 12
Pollen .10 out of 12
Air Quality Not available.
Flu Activity Not available.
SPECI KAGC 251037Z 24009G21KT 10SM BKN024 BKN029 OVC070 04/M01 A2975 RMK AO2 T00391011

More Conditions Fewer Conditions

Pressure 29.75 in
Visibility 10.0 miles
Clouds Mostly Cloudy 2400 ft
Mostly Cloudy 2900 ft
Overcast 7000 ft
Windchill 37 °F
Dew Point 36 °F
Humidity 85%
Rainfall 0.02 in
Snow Depth Not available.
UV 0 out of 12
Pollen .10 out of 12
Air Quality Not available.
Flu Activity Not available.
SPECI KAGC 251037Z 24009G21KT 10SM BKN024 BKN029 OVC070 04/M01 A2975 RMK AO2 T00391011

More Conditions Fewer Conditions

10-Day Weather Forecast

Almanac

Astronomy

Dec. 25, 2014 Rise Set
Actual Time
Civil Twilight
Nautical Twilight
Astronomical Twilight
Moon
Length of Visible Light
Length of Day
Tomorrow will be .
, % of the Moon is Illuminated

Today's Extremes

State Highs State Lows

Community

WunderPhotos

Upload Photos

1,780,254 photos uploaded!

WunderBlogs® & News

Nearby

Air Quality

  Air Quality AQ Index Pollutant
Not available.

Snow Depth

Station Depth Elevation

Earthquake Activity

City Distance Mag. Time & Date
Minimum magnitude displayed is 2.5.

Coastal Water Temperatures

Place Temperature

Nearby Weather Stations